Latest Weather Observations for Salmon Gums RS

IDW60801

Issued at 4:04 pm WST Monday 21 August 2017 (issued every 30 minutes, with the page automatically refreshed every 10 minutes)

About weather observations | Map of weather stations | Latest weather observations for WA | Other Formats
Station Details ID: 012071 Name: SALMON GUMS RES.STN. Lat: -32.99 Lon: 121.62 Height: 249.0 m
Data from the previous 72 hours. | See also: Recent months at Salmon Gums RS
Date/Time
WST
Temp
°C
App
Temp
°C
Dew
Point
°C
Rel
Hum
%
Delta-T
°C
Wind Press
QNH
hPa
Press
MSL
hPa
Rain since
9am
mm
Dir  Spd
km/h
Gust
km/h
Spd
kts
Gust
kts
21/04:00pm 17.6 13.3 3.5 39 6.6 WNW 15 26 8 14 - - 0.2
21/03:30pm 17.7 13.9 3.9 40 6.6 W 13 22 7 12 - - 0.2
21/03:00pm 17.9 14.2 4.5 41 6.5 W 13 24 7 13 - - 0.2
21/02:30pm 17.5 13.1 4.5 42 6.2 WNW 17 24 9 13 - - 0.2
21/02:00pm 17.7 13.4 5.3 44 6.1 W 17 28 9 15 - - 0.2
21/01:30pm 16.7 12.2 4.4 44 5.9 NW 17 24 9 13 - - 0.2
21/01:00pm 16.5 11.8 5.2 47 5.5 WNW 19 28 10 15 - - 0.2
21/12:30pm 16.7 12.2 5.9 49 5.3 WNW 19 30 10 16 - - 0.2
21/12:00pm 15.6 11.5 6.1 53 4.6 WNW 17 26 9 14 - - 0.2
21/11:30am 15.1 11.3 5.9 54 4.5 WNW 15 24 8 13 - - 0.2
21/11:00am 14.7 10.3 6.5 58 4.0 NW 19 30 10 16 - - 0.0
21/10:30am 13.2 8.6 5.6 60 3.6 WNW 19 28 10 15 - - 0.0
21/10:00am 13.2 9.1 6.1 62 3.4 WNW 17 28 9 15 - - 0.0
21/09:30am 12.5 8.0 6.3 66 3.0 WNW 19 28 10 15 - - 0.0
21/09:00am 11.7 7.9 5.6 66 2.9 NW 15 22 8 12 - - 0.0
21/08:30am 11.3 8.0 6.4 72 2.3 WNW 13 19 7 10 - - 0.0
21/08:00am 10.3 7.9 7.0 80 1.6 WNW 9 17 5 9 - - 0.0
21/07:30am 9.7 7.9 7.8 88 0.9 WNW 7 13 4 7 - - 0.0
21/07:00am 9.4 7.8 7.8 90 0.8 NW 6 9 3 5 - - 0.0
21/06:30am 9.4 7.8 7.8 90 0.8 NW 6 7 3 4 - - 0.0
21/06:00am 9.4 8.1 7.7 89 0.8 NW 4 6 2 3 - - 0.0
21/05:30am 9.5 7.9 7.9 90 0.8 NW 6 7 3 4 - - 0.0
21/05:00am 9.4 8.1 7.8 90 0.8 NW 4 6 2 3 - - 0.0
21/04:30am 9.5 8.3 8.1 91 0.7 NW 4 6 2 3 - - 0.0
21/04:00am 9.4 8.2 8.2 92 0.6 NW 4 7 2 4 - - 0.0
21/03:30am 9.4 8.3 8.3 93 0.5 NW 4 6 2 3 - - 0.0
21/03:00am 9.4 8.3 8.3 93 0.5 W 4 7 2 4 - - 0.0
21/02:30am 9.5 8.0 8.6 94 0.4 W 6 7 3 4 - - 0.0
21/02:00am 9.4 7.9 8.5 94 0.4 W 6 7 3 4 - - 0.0
21/01:30am 9.3 8.2 8.4 94 0.4 WNW 4 4 2 2 - - 0.0
21/01:00am 9.2 8.1 8.3 94 0.4 NW 4 6 2 3 - - 0.0
21/12:30am 9.3 7.8 8.4 94 0.4 WNW 6 7 3 4 - - 0.0
21/12:00am 9.3 7.8 8.4 94 0.4 WNW 6 9 3 5 - - 0.0
 
Date/Time
WST
Temp
°C
App
Temp
°C
Dew
Point
°C
Rel
Hum
%
Delta-T
°C
Wind Press
QNH
hPa
Press
MSL
hPa
Rain since
9am
mm
Dir  Spd
km/h
Gust
km/h
Spd
kts
Gust
kts
20/11:30pm 8.9 7.3 8.0 94 0.4 NW 6 7 3 4 - - 0.0
20/11:00pm 8.6 6.9 7.5 93 0.5 NW 6 7 3 4 - - 0.0
20/10:30pm 8.4 6.7 7.5 94 0.4 NW 6 7 3 4 - - 0.0
20/10:00pm 6.9 4.8 5.8 93 0.5 NW 6 7 3 4 - - 0.0
20/09:30pm 7.6 5.6 6.4 92 0.6 WNW 6 7 3 4 - - 0.0
20/09:00pm 9.1 7.8 7.7 91 0.7 SW 4 4 2 2 - - 0.0
20/08:30pm 10.2 9.2 9.0 92 0.6 SW 4 6 2 3 - - 0.0
20/08:00pm 10.3 9.0 9.1 92 0.6 WSW 6 7 3 4 - - 0.0
20/07:30pm 10.6 9.7 9.2 91 0.7 SW 4 6 2 3 - - 0.0
20/07:00pm 10.7 9.8 9.3 91 0.7 SSW 4 6 2 3 - - 0.0
20/06:30pm 10.4 9.0 8.8 90 0.8 S 6 7 3 4 - - 0.0
20/06:00pm 11.2 9.4 9.5 89 0.9 SSW 9 15 5 8 - - 0.0
20/05:30pm 11.4 9.6 9.3 87 1.1 SW 9 15 5 8 - - 0.0
20/05:00pm 12.4 8.9 8.7 78 1.9 SW 17 26 9 14 - - 0.0
20/04:30pm 13.3 9.0 7.1 66 3.0 SSW 19 24 10 13 - - 0.0
20/04:00pm 14.0 9.7 6.8 62 3.5 SSW 19 30 10 16 - - 0.0
20/03:30pm 14.8 9.1 6.6 58 4.0 SSW 26 39 14 21 - - 0.0
20/03:00pm 14.6 8.1 6.7 59 3.9 SSW 30 43 16 23 - - 0.0
20/02:30pm 14.8 8.5 7.6 62 3.6 SSW 30 44 16 24 - - 0.0
20/02:00pm 15.4 9.4 7.2 58 4.1 SSW 28 44 15 24 - - 0.0
20/01:30pm 15.7 9.5 7.7 59 4.0 SSW 30 44 16 24 - - 0.0
20/01:00pm 15.5 9.2 7.5 59 4.0 SSW 30 46 16 25 - - 0.0
20/12:57pm 15.9 10.2 8.4 61 3.9 SSW 28 46 15 25 - - 0.0
20/12:30pm 15.5 9.9 8.7 64 3.5 SW 28 43 15 23 - - 0.0
20/12:00pm 13.5 9.5 10.3 81 1.7 SW 22 35 12 19 - - 0.0
20/11:30am 14.6 8.8 9.4 71 2.7 SSW 30 43 16 23 - - 0.0
20/11:12am 13.8 8.1 9.8 77 2.1 SW 30 50 16 27 - - 0.0
20/11:00am 13.2 7.0 9.5 78 1.9 SW 32 46 17 25 - - 0.0
20/10:32am 13.2 7.8 9.5 78 1.9 SW 28 46 15 25 - - 0.0
20/10:30am 13.0 7.1 9.1 77 2.0 SW 30 46 16 25 - - 0.0
20/10:00am 12.6 7.2 9.6 82 1.5 SW 28 44 15 24 - - 0.0
20/09:30am 12.4 6.6 9.4 82 1.5 SW 30 41 16 22 - - 0.0
20/09:00am 11.4 5.9 9.3 87 1.1 SW 28 44 15 24 - - 0.6
20/08:30am 11.5 7.2 9.2 86 1.2 SW 22 37 12 20 - - 0.6
20/08:00am 10.9 6.9 9.2 89 0.9 SW 20 33 11 18 - - 0.6
20/07:30am 10.9 7.1 9.0 88 1.0 SW 19 30 10 16 - - 0.6
20/07:00am 10.7 7.2 8.6 87 1.0 SW 17 26 9 14 - - 0.6
20/06:30am 10.6 6.5 8.7 88 0.9 SW 20 32 11 17 - - 0.6
20/06:00am 10.9 5.8 9.3 90 0.8 SW 26 43 14 23 - - 0.6
20/05:30am 10.9 6.3 9.5 91 0.7 SW 24 46 13 25 - - 0.6
20/05:00am 10.8 7.0 9.2 90 0.8 W 19 30 10 16 - - 0.2
20/04:30am 10.3 7.1 8.6 89 0.8 W 15 24 8 13 - - 0.2
20/04:00am 10.1 6.5 8.2 88 0.9 W 17 28 9 15 - - 0.0
20/03:30am 10.0 6.3 7.8 86 1.1 W 17 24 9 13 - - 0.0
20/03:00am 10.0 6.5 7.1 82 1.4 WNW 15 24 8 13 - - 0.0
20/02:30am 9.6 5.5 6.3 80 1.6 WNW 17 30 9 16 - - 0.0
20/02:00am 9.6 5.1 6.1 79 1.6 WNW 19 32 10 17 - - 0.0
20/01:30am 9.2 5.0 5.9 80 1.5 WNW 17 33 9 18 - - 0.0
20/01:00am 8.9 4.7 5.5 79 1.6 WNW 17 28 9 15 - - 0.0
20/12:30am 8.9 4.7 5.5 79 1.6 WNW 17 24 9 13 - - 0.0
20/12:00am 8.2 4.2 5.1 81 1.4 WNW 15 22 8 12 - - 0.0
 
Date/Time
WST
Temp
°C
App
Temp
°C
Dew
Point
°C
Rel
Hum
%
Delta-T
°C
Wind Press
QNH
hPa
Press
MSL
hPa
Rain since
9am
mm
Dir  Spd
km/h
Gust
km/h
Spd
kts
Gust
kts
19/11:30pm 8.0 4.4 4.8 80 1.4 WNW 13 19 7 10 - - 0.0
19/11:00pm 8.6 5.0 5.2 79 1.5 WNW 13 19 7 10 - - 0.0
19/10:30pm 8.2 4.9 4.8 79 1.5 NW 11 17 6 9 - - 0.0
19/10:00pm 9.0 6.2 5.2 77 1.7 NW 9 17 5 9 - - 0.0
19/09:30pm 9.9 6.8 5.5 74 2.0 WNW 11 19 6 10 - - 0.0
19/09:00pm 9.6 6.8 5.2 74 2.0 NW 9 13 5 7 - - 0.0
19/08:30pm 10.3 7.9 5.1 70 2.4 WNW 7 9 4 5 - - 0.0
19/08:00pm 11.0 8.1 4.9 66 2.8 WNW 9 15 5 8 - - 0.0
19/07:30pm 11.9 7.9 5.1 63 3.2 W 15 20 8 11 - - 0.0
19/07:00pm 12.5 8.6 5.2 61 3.4 W 15 28 8 15 - - 0.0
19/06:30pm 13.7 9.5 5.8 59 3.8 W 17 26 9 14 - - 0.0
19/06:00pm 14.0 10.2 5.6 57 4.0 W 15 24 8 13 - - 0.0
19/05:30pm 14.4 9.6 4.7 52 4.6 WNW 19 35 10 19 - - 0.0
19/05:00pm 15.5 11.7 6.0 53 4.6 W 15 24 8 13 - - 0.0
19/04:30pm 16.2 11.7 6.1 51 5.0 WNW 19 28 10 15 - - 0.0
19/04:00pm 16.3 13.1 8.3 59 4.1 NW 15 24 8 13 - - 0.0
19/03:30pm 15.5 10.3 7.3 58 4.1 WNW 24 35 13 19 - - 0.0
19/03:00pm 18.0 13.3 5.9 45 6.0 W 20 33 11 18 - - 0.0
19/02:30pm 18.4 14.5 5.3 42 6.4 WNW 15 24 8 13 - - 0.0
19/02:00pm 18.6 14.4 5.5 42 6.5 WNW 17 28 9 15 - - 0.0
19/01:30pm 18.3 13.7 6.5 46 5.9 WNW 20 35 11 19 - - 0.0
19/01:00pm 18.1 13.8 7.2 49 5.5 W 19 30 10 16 - - 0.0
19/12:30pm 18.8 16.1 7.3 47 5.9 NNW 11 26 6 14 - - 0.0
19/12:00pm 18.3 14.0 7.1 48 5.7 NNW 19 28 10 15 - - 0.0
19/11:30am 17.5 12.6 6.7 49 5.4 N 22 30 12 16 - - 0.0
19/11:00am 17.2 12.8 7.5 53 4.9 N 20 30 11 16 - - 0.0
19/10:30am 15.0 10.9 8.0 63 3.5 NNE 19 26 10 14 - - 0.0
19/10:00am 13.0 8.7 7.9 71 2.5 NE 20 28 11 15 - - 0.0
19/09:30am 11.0 7.0 8.2 83 1.4 NE 19 30 10 16 - - 0.0
19/09:00am 10.0 5.6 7.3 83 1.3 NE 20 28 11 15 - - 1.8
19/08:30am 9.3 4.9 6.6 83 1.3 NE 19 26 10 14 - - 1.6
19/08:00am 9.0 5.4 6.6 85 1.1 NE 15 20 8 11 - - 1.4
19/07:30am 9.1 5.7 6.0 81 1.4 NE 13 20 7 11 - - 1.2
19/07:00am 9.2 6.2 5.9 80 1.5 ENE 11 17 6 9 - - 1.2
19/06:30am 9.2 6.7 6.5 83 1.3 ENE 9 13 5 7 - - 1.2
19/06:00am 9.1 6.5 6.2 82 1.4 NE 9 13 5 7 - - 1.2
19/05:30am 9.8 7.5 5.6 75 1.9 ENE 7 11 4 6 - - 1.0
19/05:00am 10.0 7.3 5.8 75 2.0 E 9 15 5 8 - - 0.6
19/04:30am 9.8 6.8 6.0 77 1.8 E 11 13 6 7 - - 0.6
19/04:00am 10.3 7.5 5.3 71 2.3 ESE 9 13 5 7 - - 0.4
19/03:30am 10.7 8.3 5.3 69 2.5 SSE 7 11 4 6 - - 0.4
19/03:00am 10.9 8.4 4.8 66 2.8 SE 7 11 4 6 - - 0.4
19/02:30am 12.7 10.4 2.8 51 4.4 N 4 7 2 4 - - 0.0
19/02:00am 13.2 8.9 0.9 43 5.3 ENE 13 17 7 9 - - 0.0
19/01:30am 13.6 9.0 1.3 43 5.3 NE 15 20 8 11 - - 0.0
19/01:00am 13.7 8.6 1.0 42 5.5 NE 17 22 9 12 - - 0.0
19/12:30am 12.1 8.5 0.8 46 4.8 ENE 9 13 5 7 - - 0.0
19/12:00am 12.9 8.5 0.3 42 5.3 NE 13 19 7 10 - - 0.0
 
Date/Time
WST
Temp
°C
App
Temp
°C
Dew
Point
°C
Rel
Hum
%
Delta-T
°C
Wind Press
QNH
hPa
Press
MSL
hPa
Rain since
9am
mm
Dir  Spd
km/h
Gust
km/h
Spd
kts
Gust
kts
18/11:30pm 13.1 8.3 0.2 41 5.4 NE 15 26 8 14 - - 0.0
18/11:00pm 11.2 7.6 0.3 47 4.5 NE 9 15 5 8 - - 0.0
18/10:30pm 11.4 7.3 -0.4 44 4.8 NE 11 15 6 8 - - 0.0
18/10:00pm 12.6 7.6 -1.0 39 5.6 NE 15 22 8 12 - - 0.0
18/09:30pm 13.2 8.2 -1.2 37 5.9 NE 15 26 8 14 - - 0.0
18/09:00pm 11.8 7.7 -0.4 43 5.0 NE 11 17 6 9 - - 0.0
18/08:30pm 13.0 9.2 -0.6 39 5.6 NNE 9 13 5 7 - - 0.0
18/08:00pm 13.8 10.0 -0.6 37 6.0 ENE 9 11 5 6 - - 0.0
18/07:30pm 14.1 10.1 0.4 39 5.9 NE 11 15 6 8 - - 0.0
18/07:00pm 12.7 10.5 1.1 45 5.0 N 2 4 1 2 - - 0.0
18/06:30pm 13.2 9.9 -0.1 40 5.6 NE 7 9 4 5 - - 0.0
18/06:00pm 14.2 11.0 -0.3 37 6.1 NE 6 9 3 5 - - 0.0
18/05:30pm 16.1 12.8 -1.0 31 7.2 NE 6 6 3 3 - - 0.0
18/05:00pm 17.9 14.4 -1.3 27 8.2 NE 7 11 4 6 - - 0.0
18/04:30pm 19.7 15.4 -2.0 23 9.3 NNE 11 17 6 9 - - 0.0

Other Formats:

Comma delimited format used in spreadsheet applications
http://www.bom.gov.au/fwo/IDW60801/IDW60801.95639.axf

JavaScript Object Notation format (JSON) in row-major order
http://www.bom.gov.au/fwo/IDW60801/IDW60801.95639.json